Aeroporto :
LOGIN :

Iscrizione | Disclaimer

   EN    FR    IT 

 










Sommario :    VFR   VFR Marginale   IFR   IFR Intensivo   IFR Molto Intensivo
Visibilità : 
Base nubi : 
>= 8 km
>= 3000ft
5 / 8 km
1000 / 3000 ft
1500m / 5 km
500 / 1000 ft
800 / 1500m
200 / 500 ft
< 800m
< 200 ft
Simboli :   Temporali  Nebbia  Neve Forte  Precipitazioni Forti  Vento > 20 kt
SIGMETs :   Varie  Temporali  Ghiacco  Turbolenza  Onda orograficha  Ceneri Vulcaniche






- Altitudine del aeroporto : 32 ft
- Codice IATA : LKZ


EGUL - RAF Lakenheath

ULTIMO METAR :
  • 232035Z AUTO 00000KT 9999 -DZ BKN024 04/03 A2918 RMK AO2 RAE31DZB31 CIG 024V030 SLP885 $

METARs OBSOLETI :
  • 232015Z AUTO 00000KT 9999 -RA SCT020 BKN030 04/02 A2918 RMK AO2 SLP885 $
  • 232000Z AUTO 00000KT 9999 -RA FEW007 BKN020 OVC030 04/03 A2918 RMK AO2 CIG 020V030 BKN V SCT SLP885 $
  • 231955Z AUTO 12004KT 9999 -RA FEW009 SCT020 BKN030 04/02 A2918 RMK AO2 SLP885 P0003 T00410024 $
  • 231938Z AUTO 13007KT 9999 -RA FEW009 BKN020 04/02 A2918 RMK AO2 SLP885 $
  • 231913Z AUTO 15009KT 9999 -RA FEW010 SCT017 05/03 A2917 RMK AO2 SLP882 $
  • 231855Z AUTO 19012KT 9999 -RA FEW011 BKN017 05/03 A2917 RMK AO2 RAB25 SLP882 P0003 T00530033 $
  • 231831Z AUTO 14008KT 9999 -RA FEW006 FEW032 SCT060 05/03 A2916 RMK AO2 RAB25 SLP878 $
  • 231825Z AUTO 14006KT 9999 -RA FEW032 SCT060 05/03 A2916 RMK AO2 RAB25 SLP878 $
  • 231755Z AUTO 12003KT 9999 SCT035 BKN060 05/03 A2914 RMK AO2 RAE06DZB06E08RAB08E31DZB31E34 SLP871 P0000 60003 T00540027 10101 20053 52015 $
  • 231739Z AUTO 11004KT 9999 FEW023 BKN030 05/03 A2913 RMK AO2 RAE06DZB06E08RAB08E31DZB31E34 SLP868 $
  • 231705Z AUTO 11004KT 9999 -RA SCT016 06/03 A2913 RMK AO2 SLP868 $
  • 231655Z AUTO 13004KT 9999 -RA BKN016 BKN022 06/02 A2913 RMK AO2 RAB20E21DZB21E25RAB25 SLP868 P0003 T00620021 $
  • 231620Z AUTO 21013KT 9999 -RA FEW030 08/02 A2911 RMK AO2 RAB20 SLP861 $
  • 231555Z 23006KT 9999 SCT030 SCT100 08/02 A2911 RMK AO2A SCT030 V BKN SLP861 T00820022 $

TAF AMD TAF EGUL
Valido dal 23 a 16 ore il 24 a 20 ore UTC


231600Z 2316/2420 21006KT 9999 SCT030 SCT100 QNH2910INS
TEMPO 2316/2319 8000 -SHRA SCT025 BKN030
BECMG 2319/2320 19010G15KT 9999 SCT010 BKN015 QNH2914INS
BECMG 2322/2323 23006KT 8000 BR SCT015 BKN025 QNH2917INS
TEMPO 2404/2408 3200 BR BKN010
TEMPO 2413/2415 21005KT 9000 -SHRA BKN009
BECMG 2415/2416 17005KT 9999 NSW SCT020 QNH2922INS TX09/2315Z TN03/2403Z LAST NO AMDS AFT 2316 NEXT 2606



MetMap, La meteo Aeronautica in un colpo d'occhio ! - Copyright ORBIFLY Dicembre 2007 - Disclaimer

ORBIFLY MET'MAP TEAM :

Programmazione e sviluppo : Alexandra Zaïnal
Concezione : Baudouin d'Aumeries
Supporto tecnico e logistico : Manuel Goepfert
Aiuto : Marc-Olivier Méhu
Aiuto per la traduzione : Arnaldo La Scala




FONTI E CREDITI :

   NOAA